メインページ
METAR-TAF:

METAR-TAF

空港 :

Kariba, ジンバブエ

緯度: 16-31S, 経度: 028-53E, 海抜: 518m

現時点の気象観測

当レポートは3時間51分前の05:00(UTC)に作成
東/南東の風 1kt
気温 24°C
湿度 83%
気圧 1016 hPa
視程10km以上
1,500メートル以下は雲なし、積乱雲なし

METAR: FVKB 280500Z 11001KT CAVOK 24/21 Q1016

時間: 10:51 (08:51 UTC)


TAF: 見つかりません

4,000以上の空港の気象観測と天気予報(METAR報とTAF報)

利用可能な観測所は地図上に黄色い丸と赤い丸で示す。

丸の上にカーソルを重ねると観測所名を参照できる。

次にクリックすると気象観測と天気予報を参照できる。

マップの切り替え:黒色「×」印の緑ボタンをクリックして拡大、「-」印の緑ボタンをクリックして縮小、緑色の三角印をクリックして隣りの地図に切り替え


METAR-TAF: